Time;durP1;ratioP1;P1;durP2;ratioP2;P2;SDS_P1;SDS_P2;PMS_P1;PMS_P2;Temp;Humidity;BMP_temperature;BMP_pressure;BME280_temperature;BME280_humidity;BME280_pressure;Samples;Min_cycle;Max_cycle;Signal;HPM_P1;HPM_P2
2023/01/10 00:00:46;;;;;;;1.77;1.63;;;5.40;97.30;;;;;;4916375;29;20494;-89
2023/01/10 00:03:12;;;;;;;3.10;1.90;;;5.40;97.30;;;;;;4915868;29;20224;-89
2023/01/10 00:05:39;;;;;;;1.10;1.00;;;5.40;97.30;;;;;;4916306;29;20248;-89
2023/01/10 00:08:05;;;;;;;2.17;1.83;;;5.40;97.30;;;;;;4933182;29;20673;-90
2023/01/10 00:10:32;;;;;;;1.00;0.90;;;5.40;97.30;;;;;;4917027;29;20638;-90
2023/01/10 00:15:41;;;;;;;1.33;1.10;;;5.40;97.30;;;;;;4934020;29;20482;-90
2023/01/10 00:18:07;;;;;;;8.23;2.00;;;5.40;97.30;;;;;;4933805;29;20716;-89
2023/01/10 00:20:33;;;;;;;1.97;1.83;;;5.40;97.30;;;;;;4916357;29;20312;-90
2023/01/10 00:22:58;;;;;;;1.77;1.70;;;5.40;97.30;;;;;;4935285;29;20482;-90
2023/01/10 00:25:24;;;;;;;1.27;1.17;;;5.40;97.30;;;;;;4920084;29;20183;-90
2023/01/10 00:28:00;;;;;;;1.17;1.07;;;5.50;97.30;;;;;;4920065;29;20662;-88
2023/01/10 00:30:26;;;;;;;1.50;1.40;;;5.50;97.30;;;;;;4920250;29;20227;-88
2023/01/10 00:32:52;;;;;;;1.20;1.10;;;5.60;97.30;;;;;;4919816;29;20459;-89
2023/01/10 00:35:17;;;;;;;1.57;1.30;;;5.60;97.30;;;;;;4947354;29;20469;-90
2023/01/10 00:37:43;;;;;;;1.10;1.00;;;5.70;97.30;;;;;;4938822;29;20246;-89
2023/01/10 00:40:10;;;;;;;1.10;1.00;;;5.70;97.30;;;;;;4938700;29;20190;-89
2023/01/10 00:45:23;;;;;;;2.00;1.83;;;5.80;97.30;;;;;;4956334;29;20917;-89
2023/01/10 00:47:49;;;;;;;1.60;1.50;;;5.80;97.30;;;;;;4938711;29;21065;-88
2023/01/10 00:50:15;;;;;;;1.83;1.73;;;5.90;97.30;;;;;;4938537;29;20418;-90
2023/01/10 00:52:41;;;;;;;3.80;2.23;;;5.90;97.30;;;;;;4938293;29;20469;-89
2023/01/10 00:55:07;;;;;;;2.47;2.33;;;6.00;97.30;;;;;;4938860;29;20790;-88
2023/01/10 00:57:32;;;;;;;1.47;1.37;;;6.00;97.30;;;;;;4938199;29;20663;-89
2023/01/10 00:59:58;;;;;;;2.50;1.47;;;6.00;97.30;;;;;;4955482;29;20843;-89
2023/01/10 01:02:23;;;;;;;1.47;1.37;;;6.00;97.30;;;;;;4938173;29;20207;-89
2023/01/10 01:04:49;;;;;;;1.60;1.50;;;6.00;97.30;;;;;;4938527;29;20639;-89
2023/01/10 01:07:14;;;;;;;1.37;1.33;;;6.00;97.30;;;;;;4938672;29;20171;-89
2023/01/10 01:10:25;;;;;;;1.90;1.80;;;6.10;97.30;;;;;;4938215;29;20183;-89
2023/01/10 01:12:25;;;;;;;3.30;2.57;;;6.10;97.30;;;;;;4935441;29;20231;-89
2023/01/10 01:14:51;;;;;;;2.93;2.20;;;6.10;97.30;;;;;;4918960;29;20797;-89
2023/01/10 01:17:17;;;;;;;1.93;1.83;;;6.10;97.30;;;;;;4919238;29;20658;-89
2023/01/10 01:19:42;;;;;;;7.47;2.80;;;6.10;97.30;;;;;;4919087;29;20176;-90
2023/01/10 01:22:08;;;;;;;1.70;1.70;;;6.10;97.30;;;;;;4919275;29;20891;-89
2023/01/10 01:24:34;;;;;;;1.80;1.70;;;6.10;97.30;;;;;;4918872;29;20180;-90
2023/01/10 01:26:59;;;;;;;1.57;1.53;;;6.00;97.30;;;;;;4919036;29;20274;-88
2023/01/10 01:29:25;;;;;;;3.53;1.90;;;6.10;97.30;;;;;;4918759;29;20463;-90
2023/01/10 01:31:50;;;;;;;2.00;1.73;;;6.10;97.30;;;;;;4918888;29;20283;-90
2023/01/10 01:34:16;;;;;;;1.47;1.37;;;6.10;97.30;;;;;;4917820;29;20168;-90
2023/01/10 01:36:41;;;;;;;2.87;2.23;;;6.00;97.30;;;;;;4935821;29;20239;-89
2023/01/10 01:39:07;;;;;;;1.43;1.33;;;6.00;97.30;;;;;;4918595;29;20235;-90
2023/01/10 01:44:18;;;;;;;2.13;1.90;;;6.00;97.30;;;;;;4935965;29;20251;-89
2023/01/10 01:46:59;;;;;;;1.70;1.60;;;5.90;97.30;;;;;;4918778;29;20424;-90
2023/01/10 01:49:25;;;;;;;2.03;1.93;;;5.90;97.30;;;;;;4918670;29;20883;-89
2023/01/10 01:51:57;;;;;;;1.40;1.23;;;5.80;97.30;;;;;;4934115;29;20490;-88
2023/01/10 01:54:22;;;;;;;12.10;2.63;;;5.80;97.30;;;;;;4918262;29;20172;-90
2023/01/10 01:56:57;;;;;;;4.73;1.63;;;5.80;97.30;;;;;;4918461;29;20418;-89
2023/01/10 01:59:31;;;;;;;1.47;1.37;;;5.80;97.30;;;;;;4918233;29;20596;-90
2023/01/10 02:02:06;;;;;;;3.43;1.83;;;5.80;97.30;;;;;;4918565;29;20988;-89
2023/01/10 02:04:40;;;;;;;1.10;1.00;;;5.80;97.30;;;;;;4918501;29;20426;-90
2023/01/10 02:07:06;;;;;;;1.30;1.20;;;5.80;97.30;;;;;;4918687;29;20411;-90
2023/01/10 02:09:55;;;;;;;1.47;1.37;;;5.80;97.30;;;;;;4918427;29;21069;-88
2023/01/10 02:12:21;;;;;;;11.23;2.67;;;5.80;97.30;;;;;;4922761;29;20471;-89
2023/01/10 02:14:50;;;;;;;2.73;1.87;;;5.90;97.30;;;;;;4934104;29;20498;-88
2023/01/10 02:17:15;;;;;;;1.90;1.77;;;5.90;97.30;;;;;;4935159;29;20615;-90
2023/01/10 02:19:42;;;;;;;1.37;1.27;;;5.90;97.30;;;;;;4933813;29;20429;-89
2023/01/10 02:22:44;;;;;;;1.60;1.50;;;5.90;97.30;;;;;;4933982;29;20210;-89
2023/01/10 02:25:46;;;;;;;2.40;2.20;;;5.80;97.30;;;;;;4935043;29;20479;-89
2023/01/10 02:28:35;;;;;;;2.33;2.13;;;5.80;97.30;;;;;;4933483;29;20679;-90
2023/01/10 02:31:16;;;;;;;1.37;1.30;;;5.80;97.30;;;;;;4933018;29;20439;-89
2023/01/10 02:33:48;;;;;;;1.40;1.30;;;5.80;97.30;;;;;;4932322;29;20432;-90
2023/01/10 02:36:28;;;;;;;1.27;1.17;;;5.70;97.30;;;;;;4933489;29;20424;-90
2023/01/10 02:39:02;;;;;;;3.90;2.70;;;5.70;97.30;;;;;;4933174;29;20510;-89
2023/01/10 02:41:45;;;;;;;1.27;1.17;;;5.70;97.30;;;;;;4934866;29;20419;-89
2023/01/10 02:44:23;;;;;;;1.77;1.67;;;5.70;97.30;;;;;;4933417;29;20435;-88
2023/01/10 02:46:48;;;;;;;2.70;2.50;;;5.70;97.30;;;;;;4933298;29;20502;-90
2023/01/10 02:49:14;;;;;;;2.10;1.57;;;5.70;97.30;;;;;;4932973;29;20951;-90
2023/01/10 02:51:39;;;;;;;3.93;3.73;;;5.70;97.30;;;;;;4933265;29;20184;-90
2023/01/10 02:54:13;;;;;;;3.10;1.70;;;5.60;97.30;;;;;;4933242;29;20207;-89
2023/01/10 02:56:58;;;;;;;6.70;2.27;;;5.60;97.30;;;;;;4933411;29;20180;-89
2023/01/10 02:59:48;;;;;;;1.67;1.57;;;5.60;97.30;;;;;;4933213;29;20443;-89
2023/01/10 03:02:20;;;;;;;4.10;3.10;;;5.60;97.30;;;;;;4933429;29;20447;-90
2023/01/10 03:05:14;;;;;;;18.83;3.00;;;5.60;97.30;;;;;;4933495;29;20416;-89
2023/01/10 03:07:54;;;;;;;3.67;2.40;;;5.60;97.30;;;;;;4934318;29;20450;-89
2023/01/10 03:10:36;;;;;;;1.30;1.20;;;5.60;97.30;;;;;;4932992;29;20679;-89
2023/01/10 03:13:17;;;;;;;5.13;2.60;;;5.60;97.30;;;;;;4932727;29;20471;-89
2023/01/10 03:15:44;;;;;;;1.13;1.03;;;5.60;97.30;;;;;;4932785;29;20423;-89
2023/01/10 03:18:16;;;;;;;1.90;1.80;;;5.60;97.30;;;;;;4932966;29;20412;-89
2023/01/10 03:20:45;;;;;;;1.57;1.47;;;5.60;97.30;;;;;;4932759;29;20420;-89
2023/01/10 03:23:13;;;;;;;2.47;2.27;;;5.60;97.30;;;;;;4932964;29;20459;-90
2023/01/10 03:25:40;;;;;;;2.07;1.20;;;5.50;97.30;;;;;;4932587;29;20420;-90
2023/01/10 03:28:28;;;;;;;3.80;2.70;;;5.50;97.30;;;;;;4932492;29;20455;-89
2023/01/10 03:31:13;;;;;;;13.87;3.97;;;5.50;97.30;;;;;;4933577;29;20419;-89
2023/01/10 03:33:39;;;;;;;1.57;1.47;;;5.40;97.30;;;;;;4932574;29;20788;-90
2023/01/10 03:36:21;;;;;;;2.27;2.07;;;5.40;97.30;;;;;;4932280;29;20424;-89
2023/01/10 03:38:52;;;;;;;2.67;2.47;;;5.40;97.30;;;;;;4932515;29;20419;-89
2023/01/10 03:41:46;;;;;;;5.07;2.30;;;5.40;97.30;;;;;;4932286;29;20420;-89
2023/01/10 03:47:34;;;;;;;2.50;2.30;;;5.40;97.30;;;;;;4933859;29;20414;-90
2023/01/10 03:50:05;;;;;;;2.27;2.10;;;5.50;97.30;;;;;;4932160;29;21001;-90
2023/01/10 03:52:33;;;;;;;19.90;2.63;;;5.50;97.30;;;;;;4931023;29;20460;-88
2023/01/10 03:54:59;;;;;;;1.50;1.40;;;5.50;97.30;;;;;;4932230;29;20508;-90
2023/01/10 03:57:25;;;;;;;1.70;1.60;;;5.60;97.30;;;;;;4933493;29;20761;-90
2023/01/10 03:59:54;;;;;;;2.70;2.03;;;5.60;97.30;;;;;;4931923;29;20400;-89
2023/01/10 04:02:19;;;;;;;1.47;1.37;;;5.60;97.30;;;;;;4932305;29;20526;-89
2023/01/10 04:04:45;;;;;;;2.90;2.73;;;5.60;97.30;;;;;;4932104;29;20548;-90
2023/01/10 04:07:10;;;;;;;1.43;1.37;;;5.60;97.30;;;;;;4932190;29;20543;-89
2023/01/10 04:09:36;;;;;;;1.83;1.73;;;5.60;97.30;;;;;;4934131;29;20716;-89
2023/01/10 04:14:31;;;;;;;1.90;1.77;;;5.60;97.30;;;;;;5010489;28;20441;-86
2023/01/10 04:16:57;;;;;;;1.80;1.70;;;5.60;97.30;;;;;;5012857;28;20487;-84
2023/01/10 04:19:22;;;;;;;2.20;2.07;;;5.60;97.30;;;;;;5011362;28;20503;-84
2023/01/10 04:21:48;;;;;;;6.13;2.70;;;5.60;97.30;;;;;;5011421;28;20182;-84
2023/01/10 04:24:13;;;;;;;1.57;1.47;;;5.60;97.30;;;;;;5011642;28;20201;-84
2023/01/10 04:26:39;;;;;;;2.37;1.70;;;5.60;97.30;;;;;;5011568;28;20714;-83
2023/01/10 04:29:04;;;;;;;3.13;1.73;;;5.60;97.30;;;;;;5011366;28;20197;-84
2023/01/10 04:31:30;;;;;;;3.93;1.93;;;5.60;97.30;;;;;;5011398;28;20660;-84
2023/01/10 04:33:56;;;;;;;3.40;1.77;;;5.60;97.30;;;;;;5011300;28;20433;-84
2023/01/10 04:36:21;;;;;;;1.87;1.77;;;5.60;97.30;;;;;;5011177;28;20172;-84
2023/01/10 04:38:47;;;;;;;4.70;2.73;;;5.60;97.30;;;;;;5011216;28;20177;-85
2023/01/10 04:41:12;;;;;;;2.30;1.47;;;5.60;97.30;;;;;;5011182;28;20181;-84
2023/01/10 04:43:38;;;;;;;1.83;1.70;;;5.60;97.30;;;;;;5011455;28;20197;-84
2023/01/10 04:46:03;;;;;;;2.80;2.10;;;5.60;97.30;;;;;;5011415;28;20189;-84
2023/01/10 04:48:29;;;;;;;1.37;1.07;;;5.60;97.30;;;;;;5012564;28;20319;-84
2023/01/10 04:50:54;;;;;;;1.70;1.60;;;5.60;97.30;;;;;;5011213;28;20177;-85
2023/01/10 04:53:20;;;;;;;4.80;3.17;;;5.60;97.30;;;;;;5011449;28;20198;-84
2023/01/10 04:55:46;;;;;;;3.23;2.30;;;5.60;97.30;;;;;;5011323;28;20821;-84
2023/01/10 04:58:12;;;;;;;1.30;1.20;;;5.60;97.30;;;;;;5011796;28;20408;-86
2023/01/10 05:00:38;;;;;;;1.13;1.03;;;5.70;97.30;;;;;;5011549;28;20239;-84
2023/01/10 05:03:04;;;;;;;1.67;1.57;;;5.70;97.30;;;;;;5011863;28;20712;-85
2023/01/10 05:05:30;;;;;;;2.37;2.17;;;5.70;97.30;;;;;;5011983;28;20425;-84
2023/01/10 05:07:56;;;;;;;4.27;3.83;;;5.70;97.30;;;;;;5012775;28;20466;-84
2023/01/10 05:10:21;;;;;;;2.30;2.00;;;5.70;97.30;;;;;;5014267;28;20416;-84
2023/01/10 05:12:46;;;;;;;2.03;1.50;;;5.70;97.30;;;;;;5006845;28;20252;-85
2023/01/10 05:15:13;;;;;;;11.23;3.57;;;5.80;97.30;;;;;;4996797;28;20261;-84
2023/01/10 05:17:38;;;;;;;3.20;2.73;;;5.80;97.30;;;;;;4995464;28;20559;-84
2023/01/10 05:20:04;;;;;;;3.67;2.43;;;5.80;97.30;;;;;;4995408;28;20420;-86
2023/01/10 05:22:30;;;;;;;2.13;1.97;;;5.80;97.30;;;;;;4995798;28;20565;-84
2023/01/10 05:24:55;;;;;;;1.10;1.00;;;5.80;97.30;;;;;;4995782;28;20503;-84
2023/01/10 05:27:21;;;;;;;1.53;1.50;;;5.80;97.30;;;;;;4995627;28;20177;-84
2023/01/10 05:29:46;;;;;;;1.80;1.70;;;5.80;97.30;;;;;;4996786;28;20182;-84
2023/01/10 05:32:12;;;;;;;1.77;1.67;;;5.80;97.30;;;;;;4996108;28;20209;-84
2023/01/10 05:34:37;;;;;;;13.17;1.83;;;5.80;97.30;;;;;;5013823;28;20177;-84
2023/01/10 05:37:03;;;;;;;2.40;1.97;;;5.80;97.30;;;;;;5030624;28;20185;-84
2023/01/10 05:39:28;;;;;;;4.20;2.87;;;5.80;97.30;;;;;;5026097;28;20196;-85
2023/01/10 05:41:54;;;;;;;1.73;1.63;;;5.80;97.30;;;;;;5014986;28;20188;-84
2023/01/10 05:44:19;;;;;;;3.00;2.80;;;5.80;97.30;;;;;;5014814;28;20260;-82
2023/01/10 05:46:45;;;;;;;5.17;3.30;;;5.80;97.30;;;;;;5014445;28;20659;-84
2023/01/10 05:49:10;;;;;;;2.23;1.73;;;5.80;97.30;;;;;;5015750;28;20351;-84
2023/01/10 05:51:36;;;;;;;2.10;1.53;;;5.90;97.30;;;;;;5014256;28;20258;-84
2023/01/10 05:54:01;;;;;;;3.53;3.33;;;5.80;97.30;;;;;;5014280;28;20197;-85
2023/01/10 05:56:28;;;;;;;5.77;3.83;;;5.80;97.30;;;;;;5015517;28;20583;-83
2023/01/10 05:58:53;;;;;;;3.67;3.47;;;5.80;97.30;;;;;;5014158;28;20592;-84
2023/01/10 06:01:19;;;;;;;2.93;1.63;;;5.80;97.30;;;;;;5014031;28;20420;-85
2023/01/10 06:03:44;;;;;;;1.30;1.20;;;5.80;97.30;;;;;;5014082;28;20577;-84
2023/01/10 06:06:10;;;;;;;6.03;3.10;;;5.80;97.30;;;;;;5015358;28;20170;-84
2023/01/10 06:08:36;;;;;;;6.60;3.20;;;5.80;97.30;;;;;;5014024;28;20193;-84
2023/01/10 06:11:02;;;;;;;2.77;1.67;;;5.80;97.30;;;;;;5014215;28;20208;-84
2023/01/10 06:13:28;;;;;;;1.87;1.30;;;5.80;97.30;;;;;;5013947;28;20233;-84
2023/01/10 06:15:53;;;;;;;2.50;2.23;;;5.90;97.30;;;;;;5013958;28;20424;-85
2023/01/10 06:18:19;;;;;;;1.27;1.17;;;5.80;97.30;;;;;;5013789;28;20185;-84
2023/01/10 06:20:45;;;;;;;1.67;1.53;;;5.90;97.30;;;;;;5013579;28;20181;-83
2023/01/10 06:23:11;;;;;;;1.10;1.00;;;5.90;97.30;;;;;;5011196;28;20216;-84
2023/01/10 06:25:40;;;;;;;1.63;1.50;;;5.90;97.30;;;;;;5014087;28;20185;-84
2023/01/10 06:28:07;;;;;;;1.20;1.10;;;5.90;97.30;;;;;;5013688;28;20467;-85
2023/01/10 06:30:34;;;;;;;2.87;1.53;;;5.90;97.30;;;;;;4997266;28;20437;-85
2023/01/10 06:33:10;;;;;;;1.73;1.63;;;5.90;97.30;;;;;;5013472;28;20963;-84
2023/01/10 06:35:36;;;;;;;3.17;2.97;;;5.90;97.30;;;;;;5000562;28;20408;-84
2023/01/10 06:38:01;;;;;;;2.70;2.60;;;5.90;97.30;;;;;;4994125;28;20455;-83
2023/01/10 06:40:28;;;;;;;1.63;1.53;;;6.00;97.30;;;;;;4993626;28;20186;-85
2023/01/10 06:42:53;;;;;;;1.97;1.50;;;5.90;97.30;;;;;;4993624;28;20212;-85
2023/01/10 06:45:19;;;;;;;3.60;1.73;;;5.90;97.30;;;;;;4994077;28;20421;-86
2023/01/10 06:47:44;;;;;;;1.20;1.10;;;5.90;97.30;;;;;;4994111;28;20629;-84
2023/01/10 06:50:12;;;;;;;1.87;1.77;;;5.90;97.30;;;;;;4993799;28;20258;-84
2023/01/10 06:52:37;;;;;;;2.20;1.90;;;5.90;97.30;;;;;;4993953;28;20194;-85
2023/01/10 06:55:04;;;;;;;3.13;3.00;;;5.80;97.30;;;;;;5005639;28;20475;-84
2023/01/10 06:57:29;;;;;;;2.40;2.20;;;5.80;97.30;;;;;;5014571;28;20405;-83
2023/01/10 06:59:55;;;;;;;1.40;1.30;;;5.80;97.30;;;;;;5018810;28;20420;-87
2023/01/10 07:02:20;;;;;;;1.37;1.27;;;5.80;97.30;;;;;;5016113;28;20197;-86
2023/01/10 07:04:49;;;;;;;5.23;2.67;;;5.80;97.30;;;;;;5026900;28;20186;-86
2023/01/10 07:07:15;;;;;;;1.90;1.57;;;5.80;97.30;;;;;;5015755;28;20185;-86
2023/01/10 07:09:41;;;;;;;1.37;1.27;;;5.80;97.30;;;;;;5018782;28;20455;-90
2023/01/10 07:12:06;;;;;;;3.30;1.37;;;5.80;97.30;;;;;;5017631;28;20485;-84
2023/01/10 07:14:32;;;;;;;1.10;1.00;;;5.80;97.30;;;;;;5018917;28;20256;-88
2023/01/10 07:16:57;;;;;;;3.50;2.03;;;5.80;97.30;;;;;;5005639;28;20189;-85
2023/01/10 07:19:23;;;;;;;1.17;1.07;;;5.90;97.30;;;;;;5010999;28;20186;-85
2023/01/10 07:21:48;;;;;;;1.30;1.20;;;5.90;97.30;;;;;;5000387;28;20675;-86
2023/01/10 07:24:14;;;;;;;1.30;1.20;;;5.90;97.30;;;;;;5000940;28;20742;-85
2023/01/10 07:26:39;;;;;;;1.40;1.30;;;5.90;97.30;;;;;;4999142;28;20189;-86
2023/01/10 07:29:05;;;;;;;1.07;0.97;;;5.90;97.30;;;;;;4996524;28;20217;-88
2023/01/10 07:31:30;;;;;;;1.93;1.83;;;5.90;97.30;;;;;;4997246;28;20268;-89
2023/01/10 07:33:56;;;;;;;1.00;0.90;;;5.90;97.30;;;;;;4998207;28;20201;-90
2023/01/10 07:36:21;;;;;;;1.93;1.73;;;6.00;97.30;;;;;;5007949;28;20772;-85
2023/01/10 07:38:47;;;;;;;4.07;2.80;;;6.00;97.30;;;;;;5011849;28;20261;-85
2023/01/10 07:41:12;;;;;;;1.40;1.30;;;6.00;97.30;;;;;;5011849;28;20185;-85
2023/01/10 07:43:38;;;;;;;1.73;1.63;;;6.00;97.30;;;;;;5007766;28;20278;-86
2023/01/10 07:46:09;;;;;;;1.33;1.23;;;6.00;97.30;;;;;;4998963;28;20226;-84
2023/01/10 07:48:35;;;;;;;1.47;1.37;;;6.00;97.30;;;;;;4997545;28;20676;-88
2023/01/10 07:51:01;;;;;;;1.17;1.10;;;6.00;97.30;;;;;;5003038;28;20424;-85
2023/01/10 07:53:28;;;;;;;1.40;1.30;;;6.00;97.30;;;;;;5000959;28;20541;-85
2023/01/10 07:55:57;;;;;;;19.33;2.73;;;6.00;97.30;;;;;;4999379;28;20446;-84
2023/01/10 07:58:22;;;;;;;0.97;0.87;;;6.10;97.30;;;;;;5011429;28;20462;-85
2023/01/10 08:00:49;;;;;;;1.20;1.10;;;6.10;97.30;;;;;;5011657;28;21008;-83
2023/01/10 08:03:15;;;;;;;1.07;1.00;;;6.10;97.30;;;;;;5011748;28;20270;-85
2023/01/10 08:05:41;;;;;;;1.87;1.77;;;6.10;97.30;;;;;;5011858;28;20499;-85
2023/01/10 08:08:11;;;;;;;1.00;0.90;;;6.10;97.30;;;;;;5013176;28;20621;-85
2023/01/10 08:10:38;;;;;;;1.60;1.50;;;6.10;97.30;;;;;;5012061;28;20255;-85
2023/01/10 08:13:04;;;;;;;1.10;1.00;;;6.10;97.30;;;;;;5012013;28;20604;-84
2023/01/10 08:15:30;;;;;;;1.73;1.67;;;6.20;97.30;;;;;;5012831;28;20507;-85
2023/01/10 08:18:00;;;;;;;2.00;1.87;;;6.20;97.30;;;;;;5005574;28;20516;-86
2023/01/10 08:20:25;;;;;;;1.60;1.50;;;6.20;97.30;;;;;;5002550;28;20178;-85
2023/01/10 08:22:51;;;;;;;1.00;0.90;;;6.20;97.30;;;;;;5004316;28;20452;-84
2023/01/10 08:25:16;;;;;;;1.73;1.63;;;6.20;97.30;;;;;;5007658;28;20208;-85
2023/01/10 08:27:42;;;;;;;1.47;1.37;;;6.30;97.30;;;;;;5011431;28;20593;-85
2023/01/10 08:30:08;;;;;;;0.90;0.80;;;6.30;97.30;;;;;;5011785;28;20173;-85
2023/01/10 08:32:33;;;;;;;6.73;2.10;;;6.30;97.30;;;;;;5013173;28;20663;-84
2023/01/10 08:34:59;;;;;;;1.10;1.00;;;6.30;97.30;;;;;;5012199;28;20424;-85
2023/01/10 08:37:24;;;;;;;4.50;2.10;;;6.30;97.30;;;;;;5012001;28;20215;-86
2023/01/10 08:39:50;;;;;;;1.53;1.30;;;6.30;97.30;;;;;;5011995;28;20185;-84
2023/01/10 08:42:15;;;;;;;1.37;1.27;;;6.30;97.30;;;;;;5007567;28;20672;-85
2023/01/10 08:44:41;;;;;;;1.57;1.47;;;6.40;97.30;;;;;;4995572;28;20676;-85
2023/01/10 08:47:07;;;;;;;3.57;3.40;;;6.40;97.30;;;;;;4997171;28;20177;-87
2023/01/10 08:49:32;;;;;;;1.67;1.57;;;6.40;97.30;;;;;;4996079;28;20864;-84
2023/01/10 08:51:57;;;;;;;1.50;1.40;;;6.40;97.30;;;;;;5000692;28;20185;-85
2023/01/10 08:54:23;;;;;;;1.13;1.03;;;6.50;97.30;;;;;;5006195;28;20558;-82
2023/01/10 08:56:49;;;;;;;1.70;1.60;;;6.50;97.30;;;;;;4997445;28;20257;-85
2023/01/10 08:59:15;;;;;;;1.30;1.10;;;6.50;97.30;;;;;;4996546;28;20284;-85
2023/01/10 09:01:40;;;;;;;2.50;1.30;;;6.50;97.30;;;;;;4996219;28;20270;-85
2023/01/10 09:04:06;;;;;;;1.93;1.83;;;6.60;97.30;;;;;;4997651;28;20898;-87
2023/01/10 09:06:31;;;;;;;1.50;1.40;;;6.60;97.30;;;;;;4997513;28;20185;-84
2023/01/10 09:08:57;;;;;;;1.00;0.90;;;6.60;97.30;;;;;;4998741;28;20245;-85
2023/01/10 09:11:22;;;;;;;2.40;2.20;;;6.60;97.30;;;;;;5003452;28;20177;-87
2023/01/10 09:13:49;;;;;;;1.77;1.67;;;6.60;97.30;;;;;;4995635;28;20230;-85
2023/01/10 09:16:15;;;;;;;2.77;2.57;;;6.70;97.30;;;;;;4996182;28;20182;-88
2023/01/10 09:18:41;;;;;;;2.47;2.23;;;6.70;97.30;;;;;;4995814;28;20429;-88
2023/01/10 09:21:06;;;;;;;2.50;2.17;;;6.70;97.30;;;;;;4996468;28;20512;-85
2023/01/10 09:23:32;;;;;;;8.20;1.53;;;6.70;97.30;;;;;;5003169;28;20201;-86
2023/01/10 09:25:59;;;;;;;1.00;0.90;;;6.70;97.30;;;;;;5004755;28;20173;-88
2023/01/10 09:28:25;;;;;;;1.10;1.00;;;6.70;97.30;;;;;;5000524;28;20279;-87
2023/01/10 09:30:51;;;;;;;3.33;2.13;;;6.70;97.30;;;;;;5009100;28;20472;-88
2023/01/10 09:33:17;;;;;;;1.50;1.40;;;6.70;97.30;;;;;;5008123;28;20445;-87
2023/01/10 09:35:43;;;;;;;1.00;0.90;;;6.70;97.30;;;;;;4996609;28;20192;-86
2023/01/10 09:38:15;;;;;;;1.60;1.57;;;6.80;97.30;;;;;;4995151;28;20409;-86
2023/01/10 09:41:12;;;;;;;23.13;2.43;;;6.80;97.30;;;;;;4994628;28;20650;-88
2023/01/10 09:43:53;;;;;;;1.10;0.90;;;6.80;97.30;;;;;;5004785;28;20463;-88
2023/01/10 09:46:35;;;;;;;1.40;1.30;;;6.80;97.30;;;;;;5006781;28;20442;-89
2023/01/10 09:49:30;;;;;;;2.60;2.40;;;6.90;97.30;;;;;;5020885;28;20464;-88
2023/01/10 09:51:56;;;;;;;1.83;1.73;;;6.90;97.30;;;;;;5000324;28;20997;-85
2023/01/10 09:54:32;;;;;;;2.10;1.40;;;6.90;97.30;;;;;;5000111;28;20432;-86
2023/01/10 09:56:59;;;;;;;1.30;1.13;;;6.90;97.30;;;;;;5006498;28;20428;-86
2023/01/10 09:59:35;;;;;;;1.23;1.13;;;6.90;97.30;;;;;;5003041;28;20849;-85
2023/01/10 10:02:25;;;;;;;1.30;1.20;;;6.90;97.30;;;;;;5005721;28;20420;-86
2023/01/10 10:05:17;;;;;;;1.20;1.10;;;7.00;97.30;;;;;;5009460;28;20434;-86
2023/01/10 10:07:43;;;;;;;3.93;2.50;;;7.00;97.30;;;;;;4999271;28;20954;-87
2023/01/10 10:10:21;;;;;;;1.53;1.43;;;7.00;97.30;;;;;;5013928;28;20420;-86
2023/01/10 10:13:09;;;;;;;4.90;1.30;;;7.00;97.30;;;;;;5020527;22;20501;-90
2023/01/10 10:16:01;;;;;;;21.83;2.03;;;7.10;97.30;;;;;;4977357;28;20429;-86
2023/01/10 10:18:32;;;;;;;1.43;1.33;;;7.10;97.30;;;;;;4985148;28;20441;-86
2023/01/10 10:21:21;;;;;;;1.43;1.33;;;7.10;97.30;;;;;;4986903;28;20493;-87
2023/01/10 10:24:25;;;;;;;1.57;1.47;;;7.20;97.30;;;;;;4993306;28;20437;-84
2023/01/10 10:27:20;;;;;;;2.17;2.00;;;7.20;97.30;;;;;;4977068;28;20422;-85
2023/01/10 10:29:59;;;;;;;1.47;1.40;;;7.10;97.30;;;;;;4944383;28;20984;-87
2023/01/10 10:32:40;;;;;;;1.67;1.57;;;7.10;97.30;;;;;;4970536;28;20554;-88
2023/01/10 10:35:33;;;;;;;1.17;1.07;;;7.10;97.30;;;;;;4977276;28;20432;-87
2023/01/10 10:38:07;;;;;;;1.50;1.40;;;7.10;97.30;;;;;;4974926;28;20464;-86
2023/01/10 10:40:38;;;;;;;1.30;1.20;;;7.20;97.30;;;;;;4969126;28;20936;-87
2023/01/10 10:43:17;;;;;;;1.00;0.90;;;7.20;97.30;;;;;;4977664;28;20433;-87
2023/01/10 10:45:56;;;;;;;3.63;3.43;;;7.20;97.30;;;;;;4984956;28;20922;-87
2023/01/10 10:48:30;;;;;;;1.47;1.37;;;7.20;97.30;;;;;;4987563;28;20444;-87
2023/01/10 10:51:08;;;;;;;2.07;1.93;;;7.20;97.30;;;;;;4993612;28;20800;-87
2023/01/10 10:53:35;;;;;;;1.40;1.30;;;7.20;97.30;;;;;;4988730;28;20437;-87
2023/01/10 10:56:02;;;;;;;1.50;1.40;;;7.30;97.30;;;;;;4981783;28;20429;-86
2023/01/10 10:58:30;;;;;;;1.30;1.20;;;7.30;97.30;;;;;;4988527;28;20421;-87
2023/01/10 11:00:57;;;;;;;1.57;1.47;;;7.30;97.30;;;;;;4976554;28;20436;-87
2023/01/10 11:03:28;;;;;;;1.43;1.43;;;7.30;97.30;;;;;;4986999;28;20536;-87
2023/01/10 11:05:54;;;;;;;2.33;2.13;;;7.30;97.30;;;;;;4981858;28;20631;-86
2023/01/10 11:08:21;;;;;;;1.97;1.40;;;7.40;97.30;;;;;;4976976;28;20446;-87
2023/01/10 11:10:52;;;;;;;2.37;2.17;;;7.40;97.30;;;;;;4981793;28;20433;-87
2023/01/10 11:13:32;;;;;;;1.20;1.10;;;7.40;97.30;;;;;;4975779;28;20822;-86
2023/01/10 11:15:59;;;;;;;1.10;1.00;;;7.40;97.30;;;;;;4980861;28;20424;-87
2023/01/10 11:18:28;;;;;;;1.00;0.90;;;7.40;97.30;;;;;;4980805;28;20501;-87
2023/01/10 11:20:59;;;;;;;1.10;1.00;;;7.40;97.30;;;;;;4972669;28;20422;-87
2023/01/10 11:23:54;;;;;;;2.80;1.87;;;7.40;97.30;;;;;;4972674;28;20449;-85
2023/01/10 11:26:22;;;;;;;1.50;1.40;;;7.40;97.30;;;;;;4968752;28;20450;-86
2023/01/10 11:29:02;;;;;;;1.80;1.70;;;7.40;97.30;;;;;;4974162;28;20465;-86
2023/01/10 11:31:29;;;;;;;1.47;1.37;;;7.40;97.30;;;;;;4953470;29;20427;-88
2023/01/10 11:33:55;;;;;;;3.30;1.30;;;7.40;97.30;;;;;;4966407;28;20445;-87
2023/01/10 11:36:21;;;;;;;2.70;1.73;;;7.50;97.30;;;;;;4971473;28;20433;-87
2023/01/10 11:39:00;;;;;;;1.67;1.57;;;7.50;97.30;;;;;;4980727;28;20426;-88
2023/01/10 11:41:30;;;;;;;9.23;1.67;;;7.60;97.30;;;;;;4970727;28;20552;-87
2023/01/10 11:44:15;;;;;;;1.50;1.40;;;7.60;97.30;;;;;;4969422;28;20468;-87
2023/01/10 11:46:44;;;;;;;3.83;2.40;;;7.80;97.30;;;;;;4975371;28;20421;-86
2023/01/10 11:49:19;;;;;;;3.17;1.80;;;7.90;97.30;;;;;;4977616;28;20462;-86
2023/01/10 11:51:48;;;;;;;1.13;1.03;;;7.90;97.30;;;;;;4978230;28;20576;-87
2023/01/10 11:54:21;;;;;;;2.53;2.20;;;8.00;97.30;;;;;;4971454;28;20446;-87
2023/01/10 11:57:13;;;;;;;1.30;1.20;;;8.20;97.30;;;;;;4975755;28;20426;-86
2023/01/10 11:59:39;;;;;;;1.57;1.50;;;8.40;97.30;;;;;;4969665;28;20434;-87
2023/01/10 12:02:27;;;;;;;6.13;1.27;;;8.30;97.30;;;;;;4983076;28;20428;-87
2023/01/10 12:04:55;;;;;;;1.77;1.20;;;8.20;97.30;;;;;;4976226;28;20433;-86
2023/01/10 12:07:21;;;;;;;6.23;1.10;;;8.10;97.30;;;;;;4989743;28;20492;-87
2023/01/10 12:09:54;;;;;;;1.87;1.20;;;7.90;97.30;;;;;;4973824;28;20879;-88
2023/01/10 12:12:24;;;;;;;1.20;1.10;;;7.90;97.30;;;;;;4972317;28;20189;-86
2023/01/10 12:14:50;;;;;;;2.20;1.10;;;7.80;97.30;;;;;;4985491;28;20465;-87
2023/01/10 12:17:27;;;;;;;1.67;1.30;;;7.80;97.30;;;;;;4974903;28;20429;-86
2023/01/10 12:19:57;;;;;;;1.90;1.80;;;7.80;97.30;;;;;;4969315;28;20897;-88
2023/01/10 12:22:35;;;;;;;1.00;0.90;;;7.70;97.30;;;;;;4972168;28;20537;-87
2023/01/10 12:25:24;;;;;;;1.10;1.00;;;7.70;97.30;;;;;;4988128;28;20431;-88
2023/01/10 12:27:50;;;;;;;2.60;2.40;;;7.70;97.30;;;;;;4969939;28;20461;-87
2023/01/10 12:30:42;;;;;;;2.33;2.13;;;7.70;97.30;;;;;;4979466;28;20469;-87
2023/01/10 12:33:17;;;;;;;11.40;1.40;;;7.70;97.30;;;;;;4963098;28;20225;-88
2023/01/10 12:35:55;;;;;;;1.50;1.40;;;7.70;97.30;;;;;;4971822;28;20416;-86
2023/01/10 12:44:22;;;;;;;0.90;0.80;;;7.80;97.30;;;;;;4967540;28;20597;-86
2023/01/10 12:46:54;;;;;;;3.37;3.17;;;7.80;97.30;;;;;;4966427;28;20426;-85
2023/01/10 12:49:23;;;;;;;1.10;1.00;;;7.80;97.30;;;;;;4983459;28;20458;-86
2023/01/10 12:51:53;;;;;;;1.67;1.63;;;7.70;97.30;;;;;;4969215;28;20487;-90
2023/01/10 12:54:22;;;;;;;1.10;1.00;;;7.70;97.30;;;;;;4968824;28;20456;-87
2023/01/10 12:56:48;;;;;;;1.73;1.63;;;7.70;97.30;;;;;;4969900;28;20421;-87
2023/01/10 12:59:21;;;;;;;1.00;0.90;;;7.70;97.30;;;;;;4970646;28;20429;-87
2023/01/10 13:01:52;;;;;;;1.20;1.10;;;7.60;97.30;;;;;;4977433;28;20481;-85
2023/01/10 13:04:21;;;;;;;1.53;1.00;;;7.60;97.30;;;;;;4971216;28;20492;-87
2023/01/10 13:06:48;;;;;;;2.00;1.20;;;7.60;97.30;;;;;;4970862;28;20967;-87
2023/01/10 13:09:23;;;;;;;1.47;1.33;;;7.60;97.30;;;;;;4970353;28;20843;-87
2023/01/10 13:12:20;;;;;;;1.37;1.27;;;7.70;97.30;;;;;;4951429;29;20426;-86
2023/01/10 13:15:01;;;;;;;2.70;2.10;;;7.70;97.30;;;;;;4960561;28;20535;-86
2023/01/10 13:17:56;;;;;;;4.07;2.50;;;7.70;97.30;;;;;;4978435;28;20669;-87
2023/01/10 13:20:21;;;;;;;1.77;1.67;;;7.60;97.30;;;;;;4970058;28;20441;-86
2023/01/10 13:22:52;;;;;;;1.60;1.50;;;7.70;97.30;;;;;;4971387;28;20841;-86
2023/01/10 13:25:23;;;;;;;1.10;1.00;;;7.70;97.30;;;;;;4952091;29;20659;-86
2023/01/10 13:28:04;;;;;;;2.47;2.27;;;7.70;97.30;;;;;;4959459;28;20537;-87
2023/01/10 13:30:33;;;;;;;1.20;1.10;;;7.70;97.30;;;;;;4971965;28;20410;-86
2023/01/10 13:33:05;;;;;;;1.77;1.67;;;7.70;97.30;;;;;;4970447;28;20437;-86